OERK/RUH METAR and TAF weather

Enter ICAO airport designator
Station Type Date Time Source
OERK METAR 2018/12/18 19:00 UTC NOAA

OERK 181900Z 02006KT CAVOK 17/12 Q1024 NOSIG


Station Type Date Time Source
OERK Decoded METAR 2018/12/18 19:00 UTC NOAA

King Khaled International Airport, Saudi Arabia (OERK) 24-56N 046-43E 612M
Dec 18, 2018 - 02:00 PM EST / 2018.12.18 1900 UTC
Wind: from the NNE (020 degrees) at 7 MPH (6 KT):0
Visibility: greater than 7 mile(s):0
Temperature: 62 F (17 C)
Dew Point: 53 F (12 C)
Relative Humidity: 72%
Pressure (altimeter): 30.24 in. Hg (1024 hPa)
ob: OERK 181900Z 02006KT CAVOK 17/12 Q1024 NOSIG
cycle: 19

Station Type Date Time Source
OERK TAF 2018/12/18 18:03 UTC NOAA

TAF OERK 181700Z 1818/1924 13005G15KT CAVOK


Example: see airport list